McCutchanville, Indiana
Current Conditions -  °F | °C
As of 8:54 PM on Sunday 21 Dec 2014 (Local Time) from KEVV Reporting Station
Clear Clear  
Wind Chill: 31°   Ceiling: Unl
Heat Index: 36°   Visibility: 10mi
Dew Point: 28°   Wind: 6mph
Humidity: 73%   Direction: 30°NNE
Pressure: 30.06"   Gusts: NA
Location:  38.1195°N, 87.5368°W
Report Text: KEVV 220254Z 03005KT 10SM CLR 02/M02 A3006 RMK AO2 SLP184 T00221022 58016
Loading
Personal Weather Stations






























Interactive Weather Map New forecast layout! Learn more

10-Day Weather Forecast

Advertisements
Track Severe Weather on mobile